sensor_id;sensor_type;location;lat;lon;timestamp;P1;durP1;ratioP1;P2;durP2;ratioP2
60612;SDS011;46443;59.792;17.626;2022-10-30T00:02:21;1.73;;;1.20;;
60612;SDS011;46443;59.792;17.626;2022-10-30T00:04:47;2.10;;;0.93;;
60612;SDS011;46443;59.792;17.626;2022-10-30T00:07:13;1.60;;;1.10;;
60612;SDS011;46443;59.792;17.626;2022-10-30T00:09:39;1.83;;;1.20;;
60612;SDS011;46443;59.792;17.626;2022-10-30T00:12:05;0.80;;;0.80;;
60612;SDS011;46443;59.792;17.626;2022-10-30T00:14:32;1.80;;;1.10;;
60612;SDS011;46443;59.792;17.626;2022-10-30T00:16:58;1.67;;;1.10;;
60612;SDS011;46443;59.792;17.626;2022-10-30T00:19:24;2.03;;;1.20;;
60612;SDS011;46443;59.792;17.626;2022-10-30T00:21:50;2.07;;;0.93;;
60612;SDS011;46443;59.792;17.626;2022-10-30T00:24:16;1.90;;;1.00;;
60612;SDS011;46443;59.792;17.626;2022-10-30T00:26:42;1.03;;;0.93;;
60612;SDS011;46443;59.792;17.626;2022-10-30T00:29:08;1.33;;;1.00;;
60612;SDS011;46443;59.792;17.626;2022-10-30T00:31:34;3.03;;;1.07;;
60612;SDS011;46443;59.792;17.626;2022-10-30T00:34:00;1.83;;;1.00;;
60612;SDS011;46443;59.792;17.626;2022-10-30T00:36:26;3.37;;;1.00;;
60612;SDS011;46443;59.792;17.626;2022-10-30T00:38:52;0.80;;;0.80;;
60612;SDS011;46443;59.792;17.626;2022-10-30T00:41:19;1.63;;;1.10;;
60612;SDS011;46443;59.792;17.626;2022-10-30T00:43:46;3.50;;;0.97;;
60612;SDS011;46443;59.792;17.626;2022-10-30T00:48:55;1.20;;;0.90;;
60612;SDS011;46443;59.792;17.626;2022-10-30T00:51:21;1.33;;;1.10;;
60612;SDS011;46443;59.792;17.626;2022-10-30T00:53:48;1.43;;;1.00;;
60612;SDS011;46443;59.792;17.626;2022-10-30T00:56:15;2.97;;;1.10;;
60612;SDS011;46443;59.792;17.626;2022-10-30T00:58:43;2.13;;;1.13;;
60612;SDS011;46443;59.792;17.626;2022-10-30T01:01:13;4.78;;;1.27;;
60612;SDS011;46443;59.792;17.626;2022-10-30T01:03:41;2.53;;;1.30;;
60612;SDS011;46443;59.792;17.626;2022-10-30T01:06:07;2.63;;;1.00;;
60612;SDS011;46443;59.792;17.626;2022-10-30T01:08:35;1.73;;;0.93;;
60612;SDS011;46443;59.792;17.626;2022-10-30T01:11:02;1.47;;;0.97;;
60612;SDS011;46443;59.792;17.626;2022-10-30T01:13:29;3.87;;;1.13;;
60612;SDS011;46443;59.792;17.626;2022-10-30T01:20:58;1.50;;;1.00;;
60612;SDS011;46443;59.792;17.626;2022-10-30T01:28:49;1.77;;;1.10;;
60612;SDS011;46443;59.792;17.626;2022-10-30T01:38:58;1.30;;;1.00;;
60612;SDS011;46443;59.792;17.626;2022-10-30T01:41:24;2.10;;;0.90;;
60612;SDS011;46443;59.792;17.626;2022-10-30T01:43:52;2.13;;;1.07;;
60612;SDS011;46443;59.792;17.626;2022-10-30T01:49:04;1.67;;;1.40;;
60612;SDS011;46443;59.792;17.626;2022-10-30T01:56:37;3.03;;;1.10;;
60612;SDS011;46443;59.792;17.626;2022-10-30T02:01:36;0.90;;;0.90;;
60612;SDS011;46443;59.792;17.626;2022-10-30T02:04:03;1.63;;;1.10;;
60612;SDS011;46443;59.792;17.626;2022-10-30T02:06:29;2.80;;;1.03;;
60612;SDS011;46443;59.792;17.626;2022-10-30T02:08:55;2.80;;;1.00;;
60612;SDS011;46443;59.792;17.626;2022-10-30T02:11:21;1.80;;;1.20;;
60612;SDS011;46443;59.792;17.626;2022-10-30T02:13:48;1.87;;;1.10;;
60612;SDS011;46443;59.792;17.626;2022-10-30T02:16:14;1.53;;;1.13;;
60612;SDS011;46443;59.792;17.626;2022-10-30T02:18:40;0.80;;;0.80;;
60612;SDS011;46443;59.792;17.626;2022-10-30T02:21:06;3.70;;;1.00;;
60612;SDS011;46443;59.792;17.626;2022-10-30T02:23:33;2.73;;;1.00;;
60612;SDS011;46443;59.792;17.626;2022-10-30T02:25:59;1.67;;;1.03;;
60612;SDS011;46443;59.792;17.626;2022-10-30T02:28:25;1.80;;;1.00;;
60612;SDS011;46443;59.792;17.626;2022-10-30T02:30:51;1.50;;;0.80;;
60612;SDS011;46443;59.792;17.626;2022-10-30T02:33:17;1.10;;;1.00;;
60612;SDS011;46443;59.792;17.626;2022-10-30T02:35:43;2.10;;;1.20;;
60612;SDS011;46443;59.792;17.626;2022-10-30T02:38:09;2.80;;;1.20;;
60612;SDS011;46443;59.792;17.626;2022-10-30T02:40:35;1.10;;;1.10;;
60612;SDS011;46443;59.792;17.626;2022-10-30T02:43:01;2.17;;;1.13;;
60612;SDS011;46443;59.792;17.626;2022-10-30T02:45:27;1.87;;;1.00;;
60612;SDS011;46443;59.792;17.626;2022-10-30T02:47:53;2.67;;;1.20;;
60612;SDS011;46443;59.792;17.626;2022-10-30T02:50:20;2.20;;;1.20;;
60612;SDS011;46443;59.792;17.626;2022-10-30T02:52:46;1.90;;;0.87;;
60612;SDS011;46443;59.792;17.626;2022-10-30T02:55:12;3.07;;;1.60;;
60612;SDS011;46443;59.792;17.626;2022-10-30T02:57:38;1.03;;;0.80;;
60612;SDS011;46443;59.792;17.626;2022-10-30T03:00:04;1.83;;;0.90;;
60612;SDS011;46443;59.792;17.626;2022-10-30T03:02:30;1.57;;;1.13;;
60612;SDS011;46443;59.792;17.626;2022-10-30T03:04:56;1.07;;;0.97;;
60612;SDS011;46443;59.792;17.626;2022-10-30T03:07:22;1.07;;;0.90;;
60612;SDS011;46443;59.792;17.626;2022-10-30T03:09:48;1.10;;;1.00;;
60612;SDS011;46443;59.792;17.626;2022-10-30T03:12:16;1.40;;;0.83;;
60612;SDS011;46443;59.792;17.626;2022-10-30T03:14:42;3.77;;;1.17;;
60612;SDS011;46443;59.792;17.626;2022-10-30T03:17:08;1.73;;;1.10;;
60612;SDS011;46443;59.792;17.626;2022-10-30T03:19:34;1.33;;;1.10;;
60612;SDS011;46443;59.792;17.626;2022-10-30T03:22:00;1.30;;;1.20;;
60612;SDS011;46443;59.792;17.626;2022-10-30T03:24:26;1.70;;;1.00;;
60612;SDS011;46443;59.792;17.626;2022-10-30T03:26:52;3.20;;;1.40;;
60612;SDS011;46443;59.792;17.626;2022-10-30T03:29:18;1.13;;;1.00;;
60612;SDS011;46443;59.792;17.626;2022-10-30T03:31:44;1.27;;;1.10;;
60612;SDS011;46443;59.792;17.626;2022-10-30T03:34:10;2.13;;;1.33;;
60612;SDS011;46443;59.792;17.626;2022-10-30T03:36:36;1.03;;;0.90;;
60612;SDS011;46443;59.792;17.626;2022-10-30T03:39:02;1.63;;;1.10;;
60612;SDS011;46443;59.792;17.626;2022-10-30T03:41:28;3.40;;;1.37;;
60612;SDS011;46443;59.792;17.626;2022-10-30T03:43:54;2.73;;;1.27;;
60612;SDS011;46443;59.792;17.626;2022-10-30T03:46:20;2.13;;;1.23;;
60612;SDS011;46443;59.792;17.626;2022-10-30T03:48:49;2.50;;;1.17;;
60612;SDS011;46443;59.792;17.626;2022-10-30T03:51:16;1.38;;;1.15;;
60612;SDS011;46443;59.792;17.626;2022-10-30T03:53:42;1.70;;;1.00;;
60612;SDS011;46443;59.792;17.626;2022-10-30T03:56:08;1.10;;;1.00;;
60612;SDS011;46443;59.792;17.626;2022-10-30T03:58:34;3.13;;;1.30;;
60612;SDS011;46443;59.792;17.626;2022-10-30T04:01:01;1.57;;;1.20;;
60612;SDS011;46443;59.792;17.626;2022-10-30T04:03:27;1.20;;;1.10;;
60612;SDS011;46443;59.792;17.626;2022-10-30T04:05:53;2.37;;;1.00;;
60612;SDS011;46443;59.792;17.626;2022-10-30T04:08:19;2.00;;;0.90;;
60612;SDS011;46443;59.792;17.626;2022-10-30T04:10:45;3.40;;;1.00;;
60612;SDS011;46443;59.792;17.626;2022-10-30T04:13:13;1.20;;;1.00;;
60612;SDS011;46443;59.792;17.626;2022-10-30T04:15:39;2.53;;;1.17;;
60612;SDS011;46443;59.792;17.626;2022-10-30T04:18:05;2.20;;;1.10;;
60612;SDS011;46443;59.792;17.626;2022-10-30T04:20:32;0.80;;;0.80;;
60612;SDS011;46443;59.792;17.626;2022-10-30T04:22:59;2.60;;;1.10;;
60612;SDS011;46443;59.792;17.626;2022-10-30T04:25:25;1.50;;;1.10;;
60612;SDS011;46443;59.792;17.626;2022-10-30T04:27:53;2.53;;;1.23;;
60612;SDS011;46443;59.792;17.626;2022-10-30T04:30:19;1.73;;;1.10;;
60612;SDS011;46443;59.792;17.626;2022-10-30T04:32:48;1.30;;;1.20;;
60612;SDS011;46443;59.792;17.626;2022-10-30T04:35:15;1.50;;;1.15;;
60612;SDS011;46443;59.792;17.626;2022-10-30T04:37:42;0.90;;;0.87;;
60612;SDS011;46443;59.792;17.626;2022-10-30T04:40:09;1.40;;;1.00;;
60612;SDS011;46443;59.792;17.626;2022-10-30T04:42:35;2.73;;;1.00;;
60612;SDS011;46443;59.792;17.626;2022-10-30T04:45:01;1.10;;;1.00;;
60612;SDS011;46443;59.792;17.626;2022-10-30T04:47:28;1.00;;;0.90;;
60612;SDS011;46443;59.792;17.626;2022-10-30T04:49:54;3.40;;;1.20;;
60612;SDS011;46443;59.792;17.626;2022-10-30T04:52:20;4.03;;;1.77;;
60612;SDS011;46443;59.792;17.626;2022-10-30T04:54:46;1.70;;;1.10;;
60612;SDS011;46443;59.792;17.626;2022-10-30T04:57:12;2.27;;;1.10;;
60612;SDS011;46443;59.792;17.626;2022-10-30T04:59:38;2.67;;;1.23;;
60612;SDS011;46443;59.792;17.626;2022-10-30T05:02:04;5.73;;;1.20;;
60612;SDS011;46443;59.792;17.626;2022-10-30T05:04:30;1.63;;;1.10;;
60612;SDS011;46443;59.792;17.626;2022-10-30T05:06:56;1.77;;;1.00;;
60612;SDS011;46443;59.792;17.626;2022-10-30T05:09:22;1.33;;;1.07;;
60612;SDS011;46443;59.792;17.626;2022-10-30T05:11:48;2.33;;;1.13;;
60612;SDS011;46443;59.792;17.626;2022-10-30T05:14:14;2.33;;;0.97;;
60612;SDS011;46443;59.792;17.626;2022-10-30T05:16:40;2.45;;;1.00;;
60612;SDS011;46443;59.792;17.626;2022-10-30T05:19:06;2.27;;;1.00;;
60612;SDS011;46443;59.792;17.626;2022-10-30T05:21:32;1.63;;;0.83;;
60612;SDS011;46443;59.792;17.626;2022-10-30T05:23:58;3.27;;;1.20;;
60612;SDS011;46443;59.792;17.626;2022-10-30T05:26:24;1.67;;;1.03;;
60612;SDS011;46443;59.792;17.626;2022-10-30T05:28:50;2.43;;;1.10;;
60612;SDS011;46443;59.792;17.626;2022-10-30T05:31:16;1.53;;;1.00;;
60612;SDS011;46443;59.792;17.626;2022-10-30T05:33:42;2.93;;;1.30;;
60612;SDS011;46443;59.792;17.626;2022-10-30T05:36:08;6.00;;;1.53;;
60612;SDS011;46443;59.792;17.626;2022-10-30T05:38:34;1.53;;;0.93;;
60612;SDS011;46443;59.792;17.626;2022-10-30T05:41:00;1.53;;;1.10;;
60612;SDS011;46443;59.792;17.626;2022-10-30T05:43:26;2.00;;;1.10;;
60612;SDS011;46443;59.792;17.626;2022-10-30T05:45:52;1.07;;;0.97;;
60612;SDS011;46443;59.792;17.626;2022-10-30T05:48:18;1.33;;;1.20;;
60612;SDS011;46443;59.792;17.626;2022-10-30T05:50:44;4.00;;;1.10;;
60612;SDS011;46443;59.792;17.626;2022-10-30T05:53:10;1.23;;;1.13;;
60612;SDS011;46443;59.792;17.626;2022-10-30T05:55:36;1.47;;;1.00;;
60612;SDS011;46443;59.792;17.626;2022-10-30T05:58:03;3.83;;;1.20;;
60612;SDS011;46443;59.792;17.626;2022-10-30T06:00:30;3.30;;;1.30;;
60612;SDS011;46443;59.792;17.626;2022-10-30T06:03:04;1.10;;;1.00;;
60612;SDS011;46443;59.792;17.626;2022-10-30T06:05:31;1.10;;;1.00;;
60612;SDS011;46443;59.792;17.626;2022-10-30T06:07:57;1.97;;;1.20;;
60612;SDS011;46443;59.792;17.626;2022-10-30T06:10:24;3.47;;;1.27;;
60612;SDS011;46443;59.792;17.626;2022-10-30T06:13:00;2.67;;;1.30;;
60612;SDS011;46443;59.792;17.626;2022-10-30T06:15:27;3.00;;;1.10;;
60612;SDS011;46443;59.792;17.626;2022-10-30T06:17:53;2.20;;;1.10;;
60612;SDS011;46443;59.792;17.626;2022-10-30T06:20:20;1.80;;;1.27;;
60612;SDS011;46443;59.792;17.626;2022-10-30T06:22:56;1.53;;;1.20;;
60612;SDS011;46443;59.792;17.626;2022-10-30T06:25:23;1.33;;;1.10;;
60612;SDS011;46443;59.792;17.626;2022-10-30T06:27:49;1.33;;;1.00;;
60612;SDS011;46443;59.792;17.626;2022-10-30T06:30:15;1.60;;;1.03;;
60612;SDS011;46443;59.792;17.626;2022-10-30T06:32:41;2.77;;;1.30;;
60612;SDS011;46443;59.792;17.626;2022-10-30T06:35:07;2.10;;;1.30;;
60612;SDS011;46443;59.792;17.626;2022-10-30T06:37:33;1.97;;;1.30;;
60612;SDS011;46443;59.792;17.626;2022-10-30T06:39:59;2.33;;;1.10;;
60612;SDS011;46443;59.792;17.626;2022-10-30T06:42:26;1.40;;;1.10;;
60612;SDS011;46443;59.792;17.626;2022-10-30T06:44:52;2.13;;;1.10;;
60612;SDS011;46443;59.792;17.626;2022-10-30T06:47:18;2.07;;;1.30;;
60612;SDS011;46443;59.792;17.626;2022-10-30T06:49:44;2.20;;;1.30;;
60612;SDS011;46443;59.792;17.626;2022-10-30T06:52:10;1.63;;;1.00;;
60612;SDS011;46443;59.792;17.626;2022-10-30T06:54:36;1.20;;;1.10;;
60612;SDS011;46443;59.792;17.626;2022-10-30T06:57:02;1.67;;;1.50;;
60612;SDS011;46443;59.792;17.626;2022-10-30T06:59:28;1.93;;;1.47;;
60612;SDS011;46443;59.792;17.626;2022-10-30T07:01:54;2.37;;;1.30;;
60612;SDS011;46443;59.792;17.626;2022-10-30T07:04:20;1.67;;;1.20;;
60612;SDS011;46443;59.792;17.626;2022-10-30T07:06:46;1.60;;;1.20;;
60612;SDS011;46443;59.792;17.626;2022-10-30T07:09:12;1.33;;;1.10;;
60612;SDS011;46443;59.792;17.626;2022-10-30T07:11:38;3.10;;;1.40;;
60612;SDS011;46443;59.792;17.626;2022-10-30T07:14:09;2.23;;;1.33;;
60612;SDS011;46443;59.792;17.626;2022-10-30T07:16:35;2.37;;;1.30;;
60612;SDS011;46443;59.792;17.626;2022-10-30T07:19:01;3.20;;;1.30;;
60612;SDS011;46443;59.792;17.626;2022-10-30T07:21:27;1.27;;;1.10;;
60612;SDS011;46443;59.792;17.626;2022-10-30T07:23:53;2.83;;;1.40;;
60612;SDS011;46443;59.792;17.626;2022-10-30T07:26:19;2.13;;;1.37;;
60612;SDS011;46443;59.792;17.626;2022-10-30T07:28:45;2.97;;;1.47;;
60612;SDS011;46443;59.792;17.626;2022-10-30T07:31:11;2.80;;;1.30;;
60612;SDS011;46443;59.792;17.626;2022-10-30T07:33:37;3.03;;;1.50;;
60612;SDS011;46443;59.792;17.626;2022-10-30T07:36:04;2.77;;;1.43;;
60612;SDS011;46443;59.792;17.626;2022-10-30T07:38:30;2.27;;;1.37;;
60612;SDS011;46443;59.792;17.626;2022-10-30T07:40:56;3.07;;;1.43;;
60612;SDS011;46443;59.792;17.626;2022-10-30T07:43:22;8.17;;;2.10;;
60612;SDS011;46443;59.792;17.626;2022-10-30T07:45:48;3.10;;;1.33;;
60612;SDS011;46443;59.792;17.626;2022-10-30T07:48:14;3.20;;;1.50;;
60612;SDS011;46443;59.792;17.626;2022-10-30T07:50:40;2.53;;;1.43;;
60612;SDS011;46443;59.792;17.626;2022-10-30T07:53:06;2.60;;;1.40;;
60612;SDS011;46443;59.792;17.626;2022-10-30T07:55:32;2.17;;;1.23;;
60612;SDS011;46443;59.792;17.626;2022-10-30T07:57:58;5.23;;;1.60;;
60612;SDS011;46443;59.792;17.626;2022-10-30T08:00:24;2.43;;;1.40;;
60612;SDS011;46443;59.792;17.626;2022-10-30T08:02:50;2.00;;;1.20;;
60612;SDS011;46443;59.792;17.626;2022-10-30T08:05:16;2.73;;;1.80;;
60612;SDS011;46443;59.792;17.626;2022-10-30T08:07:44;5.70;;;2.30;;
60612;SDS011;46443;59.792;17.626;2022-10-30T08:10:10;4.00;;;2.20;;
60612;SDS011;46443;59.792;17.626;2022-10-30T08:12:36;2.53;;;1.60;;
60612;SDS011;46443;59.792;17.626;2022-10-30T08:15:05;2.83;;;1.40;;
60612;SDS011;46443;59.792;17.626;2022-10-30T08:17:31;2.63;;;1.43;;
60612;SDS011;46443;59.792;17.626;2022-10-30T08:19:57;2.73;;;1.70;;
60612;SDS011;46443;59.792;17.626;2022-10-30T08:22:23;2.83;;;1.43;;
60612;SDS011;46443;59.792;17.626;2022-10-30T08:24:49;3.63;;;1.77;;
60612;SDS011;46443;59.792;17.626;2022-10-30T08:27:15;3.03;;;1.70;;
60612;SDS011;46443;59.792;17.626;2022-10-30T08:29:41;2.93;;;1.80;;
60612;SDS011;46443;59.792;17.626;2022-10-30T08:32:07;2.37;;;1.80;;
60612;SDS011;46443;59.792;17.626;2022-10-30T08:34:33;3.23;;;1.70;;
60612;SDS011;46443;59.792;17.626;2022-10-30T08:36:59;2.87;;;1.83;;
60612;SDS011;46443;59.792;17.626;2022-10-30T08:39:25;4.23;;;1.70;;
60612;SDS011;46443;59.792;17.626;2022-10-30T08:41:51;2.63;;;1.43;;
60612;SDS011;46443;59.792;17.626;2022-10-30T08:44:17;2.27;;;1.40;;
60612;SDS011;46443;59.792;17.626;2022-10-30T08:46:43;1.90;;;1.20;;
60612;SDS011;46443;59.792;17.626;2022-10-30T08:49:09;3.70;;;1.67;;
60612;SDS011;46443;59.792;17.626;2022-10-30T08:51:35;3.77;;;1.80;;
60612;SDS011;46443;59.792;17.626;2022-10-30T08:54:01;2.07;;;1.50;;
60612;SDS011;46443;59.792;17.626;2022-10-30T08:56:27;2.93;;;1.27;;
60612;SDS011;46443;59.792;17.626;2022-10-30T08:58:53;1.37;;;1.00;;
60612;SDS011;46443;59.792;17.626;2022-10-30T09:01:20;1.87;;;1.00;;
60612;SDS011;46443;59.792;17.626;2022-10-30T09:03:46;1.90;;;1.17;;
60612;SDS011;46443;59.792;17.626;2022-10-30T09:06:12;2.33;;;1.10;;
60612;SDS011;46443;59.792;17.626;2022-10-30T09:08:38;1.47;;;1.13;;
60612;SDS011;46443;59.792;17.626;2022-10-30T09:11:04;3.77;;;1.50;;
60612;SDS011;46443;59.792;17.626;2022-10-30T09:13:30;3.07;;;1.40;;
60612;SDS011;46443;59.792;17.626;2022-10-30T09:15:59;2.40;;;1.07;;
60612;SDS011;46443;59.792;17.626;2022-10-30T09:18:25;2.88;;;1.58;;
60612;SDS011;46443;59.792;17.626;2022-10-30T09:20:51;19.90;;;2.23;;
60612;SDS011;46443;59.792;17.626;2022-10-30T09:23:17;1.53;;;1.10;;
60612;SDS011;46443;59.792;17.626;2022-10-30T09:25:43;1.30;;;0.90;;
60612;SDS011;46443;59.792;17.626;2022-10-30T09:28:09;1.33;;;1.03;;
60612;SDS011;46443;59.792;17.626;2022-10-30T09:30:35;1.40;;;1.20;;
60612;SDS011;46443;59.792;17.626;2022-10-30T09:33:01;2.70;;;1.20;;
60612;SDS011;46443;59.792;17.626;2022-10-30T09:35:28;2.67;;;1.20;;
60612;SDS011;46443;59.792;17.626;2022-10-30T09:37:54;1.27;;;0.90;;
60612;SDS011;46443;59.792;17.626;2022-10-30T09:40:33;2.47;;;1.00;;
60612;SDS011;46443;59.792;17.626;2022-10-30T09:43:10;2.07;;;1.03;;
60612;SDS011;46443;59.792;17.626;2022-10-30T09:48:16;2.75;;;0.77;;
60612;SDS011;46443;59.792;17.626;2022-10-30T09:50:55;1.23;;;1.00;;
60612;SDS011;46443;59.792;17.626;2022-10-30T09:56:23;1.10;;;0.83;;
60612;SDS011;46443;59.792;17.626;2022-10-30T10:06:43;2.27;;;0.93;;
60612;SDS011;46443;59.792;17.626;2022-10-30T10:09:13;3.00;;;1.13;;
60612;SDS011;46443;59.792;17.626;2022-10-30T10:11:41;1.97;;;1.20;;
60612;SDS011;46443;59.792;17.626;2022-10-30T10:17:04;1.20;;;1.10;;
60612;SDS011;46443;59.792;17.626;2022-10-30T10:19:40;1.27;;;0.90;;
60612;SDS011;46443;59.792;17.626;2022-10-30T10:22:22;1.57;;;1.10;;
60612;SDS011;46443;59.792;17.626;2022-10-30T10:24:50;2.93;;;1.30;;
60612;SDS011;46443;59.792;17.626;2022-10-30T10:35:03;1.37;;;1.20;;
60612;SDS011;46443;59.792;17.626;2022-10-30T10:37:46;1.63;;;1.23;;
60612;SDS011;46443;59.792;17.626;2022-10-30T10:50:46;1.93;;;1.30;;
60612;SDS011;46443;59.792;17.626;2022-10-30T10:55:58;1.30;;;1.20;;
60612;SDS011;46443;59.792;17.626;2022-10-30T10:58:29;1.67;;;1.23;;
60612;SDS011;46443;59.792;17.626;2022-10-30T11:00:57;1.30;;;1.20;;
60612;SDS011;46443;59.792;17.626;2022-10-30T11:03:25;2.35;;;1.40;;
60612;SDS011;46443;59.792;17.626;2022-10-30T11:06:03;1.92;;;1.45;;
60612;SDS011;46443;59.792;17.626;2022-10-30T11:08:31;2.13;;;1.20;;
60612;SDS011;46443;59.792;17.626;2022-10-30T11:11:00;1.30;;;1.20;;
60612;SDS011;46443;59.792;17.626;2022-10-30T11:13:28;2.60;;;1.37;;
60612;SDS011;46443;59.792;17.626;2022-10-30T11:16:08;1.90;;;1.20;;
60612;SDS011;46443;59.792;17.626;2022-10-30T11:18:36;2.03;;;1.30;;
60612;SDS011;46443;59.792;17.626;2022-10-30T11:21:03;1.42;;;1.30;;
60612;SDS011;46443;59.792;17.626;2022-10-30T11:23:42;1.30;;;1.20;;
60612;SDS011;46443;59.792;17.626;2022-10-30T11:28:51;1.38;;;1.27;;
60612;SDS011;46443;59.792;17.626;2022-10-30T11:33:44;1.63;;;1.10;;
60612;SDS011;46443;59.792;17.626;2022-10-30T11:36:13;2.10;;;1.23;;
60612;SDS011;46443;59.792;17.626;2022-10-30T11:38:39;2.30;;;1.33;;
60612;SDS011;46443;59.792;17.626;2022-10-30T11:41:05;3.03;;;1.30;;
60612;SDS011;46443;59.792;17.626;2022-10-30T11:43:34;1.33;;;1.00;;
60612;SDS011;46443;59.792;17.626;2022-10-30T11:46:01;2.33;;;1.00;;
60612;SDS011;46443;59.792;17.626;2022-10-30T11:48:31;1.20;;;1.10;;
60612;SDS011;46443;59.792;17.626;2022-10-30T11:50:59;2.13;;;1.10;;
60612;SDS011;46443;59.792;17.626;2022-10-30T11:55:55;1.60;;;0.80;;
60612;SDS011;46443;59.792;17.626;2022-10-30T12:00:56;2.03;;;1.07;;
60612;SDS011;46443;59.792;17.626;2022-10-30T12:03:36;2.23;;;1.10;;
60612;SDS011;46443;59.792;17.626;2022-10-30T12:06:07;1.88;;;0.90;;
60612;SDS011;46443;59.792;17.626;2022-10-30T12:08:33;1.60;;;0.90;;
60612;SDS011;46443;59.792;17.626;2022-10-30T12:11:00;1.87;;;0.93;;
60612;SDS011;46443;59.792;17.626;2022-10-30T12:13:30;2.70;;;1.03;;
60612;SDS011;46443;59.792;17.626;2022-10-30T12:16:12;3.90;;;1.00;;
60612;SDS011;46443;59.792;17.626;2022-10-30T12:18:39;2.57;;;1.13;;
60612;SDS011;46443;59.792;17.626;2022-10-30T12:21:05;0.97;;;0.80;;
60612;SDS011;46443;59.792;17.626;2022-10-30T12:23:32;2.03;;;0.90;;
60612;SDS011;46443;59.792;17.626;2022-10-30T12:26:08;1.43;;;0.80;;
60612;SDS011;46443;59.792;17.626;2022-10-30T12:28:35;0.87;;;0.70;;
60612;SDS011;46443;59.792;17.626;2022-10-30T12:31:11;1.43;;;0.80;;
60612;SDS011;46443;59.792;17.626;2022-10-30T12:36:06;0.93;;;0.77;;
60612;SDS011;46443;59.792;17.626;2022-10-30T12:41:17;1.03;;;0.80;;
60612;SDS011;46443;59.792;17.626;2022-10-30T12:43:45;3.93;;;1.17;;
60612;SDS011;46443;59.792;17.626;2022-10-30T12:46:30;1.63;;;0.97;;
60612;SDS011;46443;59.792;17.626;2022-10-30T12:49:02;1.47;;;0.90;;
60612;SDS011;46443;59.792;17.626;2022-10-30T12:51:37;1.47;;;0.70;;
60612;SDS011;46443;59.792;17.626;2022-10-30T12:54:14;1.97;;;0.83;;
60612;SDS011;46443;59.792;17.626;2022-10-30T12:56:43;3.87;;;0.90;;
60612;SDS011;46443;59.792;17.626;2022-10-30T13:04:40;1.13;;;1.00;;
60612;SDS011;46443;59.792;17.626;2022-10-30T13:09:48;0.77;;;0.77;;
60612;SDS011;46443;59.792;17.626;2022-10-30T13:12:21;1.53;;;0.87;;
60612;SDS011;46443;59.792;17.626;2022-10-30T13:14:54;2.17;;;1.40;;
60612;SDS011;46443;59.792;17.626;2022-10-30T13:17:21;2.47;;;1.03;;
60612;SDS011;46443;59.792;17.626;2022-10-30T13:19:47;1.67;;;1.00;;
60612;SDS011;46443;59.792;17.626;2022-10-30T13:22:34;2.00;;;1.10;;
60612;SDS011;46443;59.792;17.626;2022-10-30T13:37:43;1.37;;;0.80;;
60612;SDS011;46443;59.792;17.626;2022-10-30T13:42:53;1.30;;;1.00;;
60612;SDS011;46443;59.792;17.626;2022-10-30T13:45:38;2.70;;;1.10;;
60612;SDS011;46443;59.792;17.626;2022-10-30T13:48:17;1.50;;;1.10;;
60612;SDS011;46443;59.792;17.626;2022-10-30T13:53:32;1.17;;;0.93;;
60612;SDS011;46443;59.792;17.626;2022-10-30T13:55:59;1.30;;;0.97;;
60612;SDS011;46443;59.792;17.626;2022-10-30T13:58:29;2.43;;;1.13;;
60612;SDS011;46443;59.792;17.626;2022-10-30T14:05:54;1.50;;;1.00;;
60612;SDS011;46443;59.792;17.626;2022-10-30T14:08:37;1.43;;;0.87;;
60612;SDS011;46443;59.792;17.626;2022-10-30T14:11:05;2.07;;;1.17;;
60612;SDS011;46443;59.792;17.626;2022-10-30T14:21:50;2.45;;;1.17;;
60612;SDS011;46443;59.792;17.626;2022-10-30T14:24:15;1.47;;;0.97;;
60612;SDS011;46443;59.792;17.626;2022-10-30T14:26:46;1.33;;;0.80;;
60612;SDS011;46443;59.792;17.626;2022-10-30T14:32:01;2.83;;;1.27;;
60612;SDS011;46443;59.792;17.626;2022-10-30T14:35:23;1.83;;;1.00;;
60612;SDS011;46443;59.792;17.626;2022-10-30T14:39:48;2.28;;;1.30;;
60612;SDS011;46443;59.792;17.626;2022-10-30T14:57:50;4.60;;;1.20;;
60612;SDS011;46443;59.792;17.626;2022-10-30T15:05:45;2.27;;;0.93;;
60612;SDS011;46443;59.792;17.626;2022-10-30T15:10:50;1.83;;;1.20;;
60612;SDS011;46443;59.792;17.626;2022-10-30T15:13:24;2.67;;;1.20;;
60612;SDS011;46443;59.792;17.626;2022-10-30T15:15:57;1.67;;;1.00;;
60612;SDS011;46443;59.792;17.626;2022-10-30T15:18:23;2.27;;;1.40;;
60612;SDS011;46443;59.792;17.626;2022-10-30T15:20:49;1.60;;;1.23;;
60612;SDS011;46443;59.792;17.626;2022-10-30T15:23:29;2.17;;;1.40;;
60612;SDS011;46443;59.792;17.626;2022-10-30T15:25:59;8.35;;;2.03;;
60612;SDS011;46443;59.792;17.626;2022-10-30T15:28:27;4.07;;;2.03;;
60612;SDS011;46443;59.792;17.626;2022-10-30T15:31:36;4.97;;;1.77;;
60612;SDS011;46443;59.792;17.626;2022-10-30T15:33:43;3.97;;;1.92;;
60612;SDS011;46443;59.792;17.626;2022-10-30T15:38:57;4.00;;;1.70;;
60612;SDS011;46443;59.792;17.626;2022-10-30T15:41:27;4.00;;;1.70;;
60612;SDS011;46443;59.792;17.626;2022-10-30T15:43:53;3.13;;;1.90;;
60612;SDS011;46443;59.792;17.626;2022-10-30T15:46:20;3.03;;;1.63;;
60612;SDS011;46443;59.792;17.626;2022-10-30T15:48:47;3.87;;;1.87;;
60612;SDS011;46443;59.792;17.626;2022-10-30T15:51:16;5.73;;;1.80;;
60612;SDS011;46443;59.792;17.626;2022-10-30T15:53:47;3.77;;;2.33;;
60612;SDS011;46443;59.792;17.626;2022-10-30T15:56:27;3.50;;;1.77;;
60612;SDS011;46443;59.792;17.626;2022-10-30T16:01:28;2.83;;;1.57;;
60612;SDS011;46443;59.792;17.626;2022-10-30T16:03:55;3.80;;;1.40;;
60612;SDS011;46443;59.792;17.626;2022-10-30T16:06:22;2.43;;;1.40;;
60612;SDS011;46443;59.792;17.626;2022-10-30T16:08:49;2.03;;;1.30;;
60612;SDS011;46443;59.792;17.626;2022-10-30T16:11:16;2.70;;;1.47;;
60612;SDS011;46443;59.792;17.626;2022-10-30T16:13:42;2.00;;;1.50;;
60612;SDS011;46443;59.792;17.626;2022-10-30T16:16:11;2.97;;;1.50;;
60612;SDS011;46443;59.792;17.626;2022-10-30T16:18:38;3.22;;;1.75;;
60612;SDS011;46443;59.792;17.626;2022-10-30T16:21:06;2.33;;;1.50;;
60612;SDS011;46443;59.792;17.626;2022-10-30T16:23:36;2.30;;;1.40;;
60612;SDS011;46443;59.792;17.626;2022-10-30T16:26:03;2.77;;;1.67;;
60612;SDS011;46443;59.792;17.626;2022-10-30T16:28:33;3.40;;;1.60;;
60612;SDS011;46443;59.792;17.626;2022-10-30T16:31:00;6.30;;;1.90;;
60612;SDS011;46443;59.792;17.626;2022-10-30T16:33:26;2.30;;;1.63;;
60612;SDS011;46443;59.792;17.626;2022-10-30T16:35:53;3.17;;;1.73;;
60612;SDS011;46443;59.792;17.626;2022-10-30T16:38:19;4.50;;;2.00;;
60612;SDS011;46443;59.792;17.626;2022-10-30T16:40:46;4.40;;;2.07;;
60612;SDS011;46443;59.792;17.626;2022-10-30T16:43:31;3.63;;;1.90;;
60612;SDS011;46443;59.792;17.626;2022-10-30T16:48:39;8.20;;;2.27;;
60612;SDS011;46443;59.792;17.626;2022-10-30T16:51:11;4.20;;;2.00;;
60612;SDS011;46443;59.792;17.626;2022-10-30T16:53:38;3.03;;;1.90;;
60612;SDS011;46443;59.792;17.626;2022-10-30T16:56:05;5.20;;;2.43;;
60612;SDS011;46443;59.792;17.626;2022-10-30T16:58:38;4.10;;;1.80;;
60612;SDS011;46443;59.792;17.626;2022-10-30T17:01:05;3.83;;;1.90;;
60612;SDS011;46443;59.792;17.626;2022-10-30T17:03:35;2.60;;;1.60;;
60612;SDS011;46443;59.792;17.626;2022-10-30T17:06:04;3.50;;;1.97;;
60612;SDS011;46443;59.792;17.626;2022-10-30T17:11:00;3.47;;;1.70;;
60612;SDS011;46443;59.792;17.626;2022-10-30T17:13:33;5.27;;;2.13;;
60612;SDS011;46443;59.792;17.626;2022-10-30T17:18:38;3.20;;;1.93;;
60612;SDS011;46443;59.792;17.626;2022-10-30T17:21:07;3.10;;;1.93;;
60612;SDS011;46443;59.792;17.626;2022-10-30T17:26:09;3.67;;;2.10;;